Time,TemperatureF,DewpointF,PressureIn,WindDirection,WindDirectionDegrees,WindSpeedMPH,WindSpeedGustMPH,Humidity,HourlyPrecipIn,Conditions,Clouds,dailyrainin,SoftwareType,DateUTC
2013-04-12 00:03:00,54.0,40.0,29.96,East,99,4.0,9.0,60,0.00,,,-99.99,,2013-04-12 05:03:00,
2013-04-12 00:12:00,54.0,40.0,29.96,East,99,4.0,9.0,60,0.00,,,-99.99,,2013-04-12 05:12:00,
2013-04-12 00:23:00,53.0,40.0,29.96,SE,130,2.0,5.0,62,0.00,,,-99.99,,2013-04-12 05:23:00,
2013-04-12 00:32:00,53.0,40.0,29.96,SE,130,2.0,5.0,62,0.00,,,-99.99,,2013-04-12 05:32:00,
2013-04-12 00:42:00,53.0,40.0,29.96,SE,130,2.0,5.0,62,0.00,,,-99.99,,2013-04-12 05:42:00,
2013-04-12 00:52:00,53.0,40.0,29.96,SE,130,2.0,5.0,62,0.00,,,-99.99,,2013-04-12 05:52:00,
2013-04-12 01:02:00,52.0,41.0,29.97,ESE,108,1.0,4.0,65,0.00,,,-99.99,,2013-04-12 06:02:00,
2013-04-12 01:12:00,52.0,41.0,29.97,ESE,108,1.0,4.0,65,0.00,,,-99.99,,2013-04-12 06:12:00,
2013-04-12 01:22:00,51.0,40.0,29.97,ESE,119,1.0,3.0,66,0.00,,,-99.99,,2013-04-12 06:22:00,
2013-04-12 01:32:00,63.0,56.0,29.87,NNE,20,1.0,2.0,79,0.00,,,-99.99,,2013-04-12 06:32:00,
2013-04-12 01:42:00,63.0,56.0,29.87,NNE,20,1.0,2.0,79,0.00,,,-99.99,,2013-04-12 06:42:00,
2013-04-12 01:52:00,51.0,40.0,29.98,ESE,120,1.0,4.0,67,0.00,,,-99.99,,2013-04-12 06:52:00,
2013-04-12 02:01:00,50.0,40.0,29.98,ESE,117,0.0,2.0,69,0.00,,,-99.99,,2013-04-12 07:01:00,
2013-04-12 02:11:00,50.0,40.0,29.98,ESE,117,0.0,2.0,69,0.00,,,-99.99,,2013-04-12 07:11:00,
2013-04-12 02:22:00,50.0,40.0,29.98,SSE,149,0.0,1.0,69,0.00,,,-99.99,,2013-04-12 07:22:00,
2013-04-12 02:32:00,48.0,39.0,29.98,SSE,150,0.0,0.0,72,0.00,,,-99.99,,2013-04-12 07:32:00,
2013-04-12 02:42:00,48.0,39.0,29.98,SSE,150,0.0,0.0,72,0.00,,,-99.99,,2013-04-12 07:42:00,
2013-04-12 02:52:00,47.0,39.0,29.98,SSE,149,0.0,1.0,75,0.00,,,-99.99,,2013-04-12 07:52:00,
2013-04-12 03:03:00,47.0,40.0,29.97,SSE,149,0.0,1.0,76,0.00,,,-99.99,,2013-04-12 08:03:00,
2013-04-12 03:12:00,47.0,40.0,29.97,SSE,149,0.0,1.0,76,0.00,,,-99.99,,2013-04-12 08:12:00,
2013-04-12 03:22:00,47.0,39.0,29.97,SSE,149,0.0,0.0,75,0.00,,,-99.99,,2013-04-12 08:22:00,
2013-04-12 03:32:00,46.0,39.0,29.97,SSE,150,0.0,0.0,76,0.00,,,-99.99,,2013-04-12 08:32:00,
2013-04-12 03:42:00,46.0,39.0,29.97,SSE,150,0.0,0.0,76,0.00,,,-99.99,,2013-04-12 08:42:00,
2013-04-12 03:52:00,46.0,39.0,29.96,SSE,150,0.0,0.0,76,0.00,,,-99.99,,2013-04-12 08:52:00,
2013-04-12 04:02:00,46.0,39.0,29.96,SSE,149,0.0,0.0,77,0.00,,,-99.99,,2013-04-12 09:02:00,
2013-04-12 04:12:00,46.0,39.0,29.96,SSE,149,0.0,0.0,77,0.00,,,-99.99,,2013-04-12 09:12:00,
2013-04-12 04:22:00,47.0,39.0,29.96,SSE,149,0.0,0.0,74,0.00,,,-99.99,,2013-04-12 09:22:00,
2013-04-12 04:33:00,47.0,39.0,29.96,NNE,20,2.0,2.0,74,0.00,,,-99.99,,2013-04-12 09:33:00,
2013-04-12 04:43:00,47.0,39.0,29.96,NNE,20,2.0,2.0,74,0.00,,,-99.99,,2013-04-12 09:43:00,
2013-04-12 04:53:00,47.0,39.0,29.96,NNE,20,1.0,2.0,73,0.00,,,-99.99,,2013-04-12 09:53:00,
2013-04-12 05:02:00,48.0,39.0,29.96,North,360,2.0,3.0,72,0.00,,,-99.99,,2013-04-12 10:02:00,
2013-04-12 05:12:00,48.0,39.0,29.96,NNE,28,1.0,3.0,71,0.00,,,-99.99,,2013-04-12 10:12:00,
2013-04-12 05:23:00,48.0,39.0,29.96,NNE,28,1.0,3.0,71,0.00,,,-99.99,,2013-04-12 10:23:00,
2013-04-12 05:34:00,48.0,39.0,29.96,NNE,28,1.0,3.0,71,0.00,,,-99.99,,2013-04-12 10:34:00,
2013-04-12 05:42:00,48.0,39.0,29.96,NNE,28,1.0,3.0,71,0.00,,,-99.99,,2013-04-12 10:42:00,
2013-04-12 05:53:00,48.0,39.0,29.96,NNE,13,2.0,2.0,70,0.00,,,-99.99,,2013-04-12 10:53:00,
2013-04-12 06:02:00,48.0,39.0,29.97,North,11,2.0,3.0,71,0.00,,,-99.99,,2013-04-12 11:02:00,
2013-04-12 06:13:00,48.0,39.0,29.97,North,11,2.0,3.0,71,0.00,,,-99.99,,2013-04-12 11:13:00,
2013-04-12 06:22:00,47.0,39.0,29.97,North,5,1.0,3.0,73,0.00,,,-99.99,,2013-04-12 11:22:00,
2013-04-12 06:32:00,45.0,38.0,29.98,North,352,1.0,2.0,77,0.00,,,-99.99,,2013-04-12 11:32:00,
2013-04-12 06:42:00,45.0,38.0,29.98,North,352,1.0,2.0,77,0.00,,,-99.99,,2013-04-12 11:42:00,
2013-04-12 06:52:00,44.0,38.0,29.98,North,351,2.0,2.0,79,0.00,,,-99.99,,2013-04-12 11:52:00,
2013-04-12 07:02:00,44.0,38.0,29.99,NNW,340,2.0,3.0,80,0.00,,,-99.99,,2013-04-12 12:02:00,
2013-04-12 07:13:00,44.0,38.0,29.99,NNW,340,2.0,3.0,80,0.00,,,-99.99,,2013-04-12 12:13:00,
2013-04-12 07:22:00,45.0,39.0,30.00,North,1,1.0,3.0,79,0.00,,,-99.99,,2013-04-12 12:22:00,
2013-04-12 07:33:00,46.0,39.0,30.00,North,1,0.0,1.0,75,0.00,,,-99.99,,2013-04-12 12:33:00,
2013-04-12 07:42:00,46.0,39.0,30.00,North,1,0.0,1.0,75,0.00,,,-99.99,,2013-04-12 12:42:00,
2013-04-12 07:52:00,46.0,38.0,30.01,North,1,0.0,0.0,74,0.00,,,-99.99,,2013-04-12 12:52:00,
2013-04-12 08:03:00,48.0,39.0,30.02,North,1,0.0,0.0,72,0.00,,,-99.99,,2013-04-12 13:03:00,
2013-04-12 08:12:00,48.0,39.0,30.02,North,1,0.0,0.0,72,0.00,,,-99.99,,2013-04-12 13:12:00,
2013-04-12 08:22:00,50.0,40.0,30.03,SE,131,0.0,1.0,68,0.00,,,-99.99,,2013-04-12 13:22:00,
2013-04-12 08:32:00,52.0,41.0,30.03,SE,125,0.0,2.0,66,0.00,,,-99.99,,2013-04-12 13:32:00,
2013-04-12 08:42:00,52.0,41.0,30.03,SE,125,0.0,2.0,66,0.00,,,-99.99,,2013-04-12 13:42:00,
2013-04-12 08:52:00,52.0,41.0,30.03,SE,125,0.0,2.0,66,0.00,,,-99.99,,2013-04-12 13:52:00,
2013-04-12 09:03:00,55.0,41.0,30.04,South,178,1.0,3.0,58,0.00,,,-99.99,,2013-04-12 14:03:00,
2013-04-12 09:12:00,55.0,41.0,30.04,South,178,1.0,3.0,58,0.00,,,-99.99,,2013-04-12 14:12:00,
2013-04-12 09:22:00,56.0,40.0,30.04,SE,132,3.0,4.0,55,0.00,,,-99.99,,2013-04-12 14:22:00,
2013-04-12 09:32:00,56.0,41.0,30.05,SE,134,3.0,5.0,56,0.00,,,-99.99,,2013-04-12 14:32:00,
2013-04-12 09:42:00,56.0,41.0,30.05,SE,134,3.0,5.0,56,0.00,,,-99.99,,2013-04-12 14:42:00,
2013-04-12 09:53:00,57.0,41.0,30.05,East,81,3.0,5.0,56,0.00,,,-99.99,,2013-04-12 14:53:00,
2013-04-12 10:02:00,57.0,41.0,30.06,East,89,5.0,7.0,56,0.00,,,-99.99,,2013-04-12 15:02:00,
2013-04-12 10:12:00,57.0,41.0,30.06,East,89,5.0,7.0,56,0.00,,,-99.99,,2013-04-12 15:12:00,
2013-04-12 10:22:00,59.0,41.0,30.06,SSE,167,3.0,8.0,52,0.00,,,-99.99,,2013-04-12 15:22:00,
2013-04-12 10:33:00,59.0,41.0,30.06,SSE,167,3.0,8.0,52,0.00,,,-99.99,,2013-04-12 15:33:00,
2013-04-12 10:43:00,59.0,41.0,30.06,SSE,167,3.0,8.0,52,0.00,,,-99.99,,2013-04-12 15:43:00,
2013-04-12 10:53:00,60.0,41.0,30.06,SSE,165,1.0,8.0,50,0.00,,,-99.99,,2013-04-12 15:53:00,
2013-04-12 11:03:00,61.0,42.0,30.06,SE,126,4.0,7.0,49,0.00,,,-99.99,,2013-04-12 16:03:00,
2013-04-12 11:13:00,61.0,42.0,30.06,SE,126,4.0,7.0,49,0.00,,,-99.99,,2013-04-12 16:13:00,
2013-04-12 11:23:00,61.0,42.0,30.06,SE,126,4.0,7.0,49,0.00,,,-99.99,,2013-04-12 16:23:00,
2013-04-12 11:33:00,61.0,42.0,30.06,SE,126,4.0,7.0,49,0.00,,,-99.99,,2013-04-12 16:33:00,
2013-04-12 11:53:00,66.0,44.0,30.05,ESE,116,2.0,6.0,45,0.00,,,-99.99,,2013-04-12 16:53:00,
2013-04-12 12:03:00,66.0,44.0,30.05,ESE,116,2.0,6.0,45,0.00,,,-99.99,,2013-04-12 17:03:00,
2013-04-12 12:12:00,66.0,44.0,30.05,ESE,116,2.0,6.0,45,0.00,,,-99.99,,2013-04-12 17:12:00,
2013-04-12 12:34:00,69.0,45.0,30.03,SSE,153,2.0,7.0,42,0.00,,,-99.99,,2013-04-12 17:34:00,
2013-04-12 12:47:00,69.0,45.0,30.03,SSE,153,2.0,7.0,42,0.00,,,-99.99,,2013-04-12 17:47:00,
2013-04-12 13:05:00,69.0,45.0,30.03,SSE,153,2.0,7.0,42,0.00,,,-99.99,,2013-04-12 18:05:00,
2013-04-12 13:15:00,73.0,46.0,30.01,SW,226,3.0,8.0,38,0.00,,,-99.99,,2013-04-12 18:15:00,
2013-04-12 14:26:00,74.0,44.0,29.97,South,173,8.0,16.0,34,0.00,,,-99.99,,2013-04-12 19:26:00,
2013-04-12 14:27:00,77.0,45.0,29.96,SE,137,3.0,13.0,32,0.00,,,-99.99,,2013-04-12 19:27:00,
2013-04-12 14:32:00,76.0,43.0,29.95,SE,132,5.0,15.0,31,0.00,,,-99.99,,2013-04-12 19:32:00,
2013-04-12 14:42:00,76.0,43.0,29.95,SE,132,5.0,15.0,31,0.00,,,-99.99,,2013-04-12 19:42:00,
2013-04-12 14:53:00,76.0,44.0,29.94,SSE,150,7.0,13.0,32,0.00,,,-99.99,,2013-04-12 19:53:00,
2013-04-12 15:02:00,77.0,43.0,29.93,SE,141,7.0,16.0,30,0.00,,,-99.99,,2013-04-12 20:02:00,
2013-04-12 15:12:00,77.0,43.0,29.93,SE,141,7.0,16.0,30,0.00,,,-99.99,,2013-04-12 20:12:00,
2013-04-12 15:22:00,78.0,44.0,29.93,SSE,149,7.0,12.0,30,0.00,,,-99.99,,2013-04-12 20:22:00,
2013-04-12 15:32:00,78.0,44.0,29.93,SSE,149,7.0,12.0,30,0.00,,,-99.99,,2013-04-12 20:32:00,
2013-04-12 15:42:00,78.0,44.0,29.93,SSE,149,7.0,12.0,30,0.00,,,-99.99,,2013-04-12 20:42:00,
2013-04-12 15:52:00,79.0,42.0,29.91,SSE,158,5.0,13.0,27,0.00,,,-99.99,,2013-04-12 20:52:00,
2013-04-12 16:02:00,79.0,42.0,29.90,South,176,7.0,13.0,27,0.00,,,-99.99,,2013-04-12 21:02:00,
2013-04-12 16:12:00,79.0,42.0,29.90,South,176,7.0,13.0,27,0.00,,,-99.99,,2013-04-12 21:12:00,
2013-04-12 16:22:00,79.0,42.0,29.90,South,176,7.0,13.0,27,0.00,,,-99.99,,2013-04-12 21:22:00,
2013-04-12 16:33:00,79.0,42.0,29.89,SSE,148,12.0,17.0,27,0.00,,,-99.99,,2013-04-12 21:33:00,
2013-04-12 16:43:00,79.0,42.0,29.89,SSE,148,12.0,17.0,27,0.00,,,-99.99,,2013-04-12 21:43:00,
2013-04-12 16:53:00,79.0,42.0,29.89,SSE,148,12.0,17.0,27,0.00,,,-99.99,,2013-04-12 21:53:00,
2013-04-12 17:02:00,79.0,43.0,29.88,SE,126,7.0,15.0,28,0.00,,,-99.99,,2013-04-12 22:02:00,
2013-04-12 17:13:00,79.0,43.0,29.88,SE,126,7.0,15.0,28,0.00,,,-99.99,,2013-04-12 22:13:00,
2013-04-12 17:22:00,79.0,43.0,29.88,SE,126,7.0,15.0,28,0.00,,,-99.99,,2013-04-12 22:22:00,
2013-04-12 17:32:00,80.0,41.0,29.87,South,179,6.0,14.0,25,0.00,,,-99.99,,2013-04-12 22:32:00,
2013-04-12 17:43:00,80.0,41.0,29.87,South,179,6.0,14.0,25,0.00,,,-99.99,,2013-04-12 22:43:00,
2013-04-12 17:52:00,80.0,41.0,29.86,SE,138,7.0,12.0,25,0.00,,,-99.99,,2013-04-12 22:52:00,
2013-04-12 18:03:00,80.0,41.0,29.86,SSE,158,4.0,13.0,25,0.00,,,-99.99,,2013-04-12 23:03:00,
2013-04-12 18:12:00,79.0,40.0,29.86,SE,145,7.0,13.0,25,0.00,,,-99.99,,2013-04-12 23:12:00,
2013-04-12 18:22:00,79.0,40.0,29.86,SE,145,7.0,13.0,25,0.00,,,-99.99,,2013-04-12 23:22:00,
2013-04-12 18:32:00,80.0,41.0,29.85,SSE,152,3.0,10.0,25,0.00,,,-99.99,,2013-04-12 23:32:00,
2013-04-12 18:42:00,80.0,41.0,29.85,SSE,152,3.0,10.0,25,0.00,,,-99.99,,2013-04-12 23:42:00,
2013-04-12 18:52:00,80.0,41.0,29.85,SSE,152,3.0,10.0,25,0.00,,,-99.99,,2013-04-12 23:52:00,
2013-04-12 19:02:00,80.0,41.0,29.85,SSE,152,3.0,10.0,25,0.00,,,-99.99,,2013-04-13 00:02:00,
2013-04-12 19:12:00,80.0,41.0,29.85,SSE,152,3.0,10.0,25,0.00,,,-99.99,,2013-04-13 00:12:00,
2013-04-12 19:22:00,78.0,40.0,29.84,ESE,115,10.0,12.0,26,0.00,,,-99.99,,2013-04-13 00:22:00,
2013-04-12 19:32:00,77.0,41.0,29.85,SSE,161,5.0,12.0,28,0.00,,,-99.99,,2013-04-13 00:32:00,
2013-04-12 19:42:00,77.0,41.0,29.85,SSE,161,5.0,12.0,28,0.00,,,-99.99,,2013-04-13 00:42:00,
2013-04-12 19:52:00,76.0,42.0,29.85,South,176,7.0,13.0,30,0.00,,,-99.99,,2013-04-13 00:52:00,
2013-04-12 20:02:00,75.0,42.0,29.85,ESE,114,10.0,13.0,31,0.00,,,-99.99,,2013-04-13 01:02:00,
2013-04-12 20:12:00,75.0,42.0,29.85,ESE,114,10.0,13.0,31,0.00,,,-99.99,,2013-04-13 01:12:00,
2013-04-12 20:22:00,75.0,42.0,29.85,ESE,114,10.0,13.0,31,0.00,,,-99.99,,2013-04-13 01:22:00,
2013-04-12 20:32:00,75.0,42.0,29.85,ESE,114,10.0,13.0,31,0.00,,,-99.99,,2013-04-13 01:32:00,
2013-04-12 20:42:00,75.0,42.0,29.85,ESE,114,10.0,13.0,31,0.00,,,-99.99,,2013-04-13 01:42:00,
2013-04-12 20:52:00,72.0,42.0,29.86,SSE,167,5.0,9.0,34,0.00,,,-99.99,,2013-04-13 01:52:00,
2013-04-12 21:02:00,71.0,42.0,29.86,SE,131,3.0,9.0,35,0.00,,,-99.99,,2013-04-13 02:02:00,
2013-04-12 21:12:00,71.0,42.0,29.86,SE,131,3.0,9.0,35,0.00,,,-99.99,,2013-04-13 02:12:00,
2013-04-12 21:22:00,69.0,42.0,29.87,SE,143,3.0,7.0,37,0.00,,,-99.99,,2013-04-13 02:22:00,
2013-04-12 21:32:00,68.0,41.0,29.88,SE,125,6.0,7.0,38,0.00,,,-99.99,,2013-04-13 02:32:00,
2013-04-12 21:42:00,68.0,41.0,29.88,SE,125,6.0,7.0,38,0.00,,,-99.99,,2013-04-13 02:42:00,
2013-04-12 21:52:00,68.0,41.0,29.89,SE,130,7.0,7.0,38,0.00,,,-99.99,,2013-04-13 02:52:00,
2013-04-12 22:02:00,67.0,41.0,29.90,SSE,155,4.0,9.0,38,0.00,,,-99.99,,2013-04-13 03:02:00,
2013-04-12 22:12:00,67.0,41.0,29.90,SSE,155,4.0,9.0,38,0.00,,,-99.99,,2013-04-13 03:12:00,
2013-04-12 22:22:00,67.0,41.0,29.91,SE,125,5.0,8.0,38,0.00,,,-99.99,,2013-04-13 03:22:00,
2013-04-12 22:33:00,66.0,40.0,29.91,ESE,113,4.0,9.0,39,0.00,,,-99.99,,2013-04-13 03:33:00,
2013-04-12 22:42:00,66.0,40.0,29.91,ESE,113,4.0,9.0,39,0.00,,,-99.99,,2013-04-13 03:42:00,
2013-04-12 22:53:00,66.0,41.0,29.92,South,173,5.0,8.0,40,0.00,,,-99.99,,2013-04-13 03:53:00,
2013-04-12 23:03:00,65.0,41.0,29.93,SE,125,5.0,9.0,42,0.00,,,-99.99,,2013-04-13 04:03:00,
2013-04-12 23:12:00,65.0,41.0,29.93,SE,125,5.0,9.0,42,0.00,,,-99.99,,2013-04-13 04:12:00,
2013-04-12 23:23:00,65.0,41.0,29.93,SE,125,5.0,9.0,42,0.00,,,-99.99,,2013-04-13 04:23:00,
2013-04-12 23:33:00,63.0,41.0,29.94,SE,130,3.0,5.0,44,0.00,,,-99.99,,2013-04-13 04:33:00,
2013-04-12 23:42:00,63.0,41.0,29.94,SE,130,3.0,5.0,44,0.00,,,-99.99,,2013-04-13 04:42:00,
2013-04-12 23:53:00,63.0,41.0,29.94,SE,130,3.0,5.0,44,0.00,,,-99.99,,2013-04-13 04:53:00,